createdAt,value
2018-02-04T00:00:13.283Z,8.93
2018-02-04T00:02:41.718Z,9.17
2018-02-04T00:05:10.418Z,9.23
2018-02-04T00:07:39.154Z,8.70
2018-02-04T00:10:08.135Z,8.80
2018-02-04T00:12:37.609Z,8.60
2018-02-04T00:15:06.306Z,8.90
2018-02-04T00:17:35.050Z,8.63
2018-02-04T00:20:03.745Z,9.50
2018-02-04T00:22:38.458Z,9.40
2018-02-04T00:25:07.897Z,8.95
2018-02-04T00:27:36.610Z,9.90
2018-02-04T00:30:04.655Z,10.00
2018-02-04T00:32:33.378Z,8.38
2018-02-04T00:35:02.090Z,8.82
2018-02-04T00:37:31.426Z,9.00
2018-02-04T00:40:00.128Z,9.40
2018-02-04T00:42:28.831Z,8.50
2018-02-04T00:44:57.526Z,9.20
2018-02-04T00:47:26.270Z,10.25
2018-02-04T00:49:55.137Z,8.68
2018-02-04T00:52:23.893Z,9.45
2018-02-04T00:54:53.359Z,9.27
2018-02-04T00:57:22.078Z,9.48
2018-02-04T00:59:50.110Z,10.65
2018-02-04T01:02:18.822Z,10.35
2018-02-04T01:04:47.522Z,9.35
2018-02-04T01:07:16.258Z,9.10
2018-02-04T01:09:44.950Z,10.05
2018-02-04T01:12:13.801Z,9.90
2018-02-04T01:14:42.522Z,11.73
2018-02-04T01:17:11.242Z,11.18
2018-02-04T01:19:39.970Z,11.23
2018-02-04T01:22:08.662Z,10.13
2018-02-04T01:24:38.146Z,10.52
2018-02-04T01:27:06.958Z,10.60
2018-02-04T01:29:35.682Z,9.35
2018-02-04T01:32:04.390Z,10.93
2018-02-04T01:34:33.253Z,10.57
2018-02-04T01:37:02.010Z,9.93
2018-02-04T01:39:31.692Z,11.07
2018-02-04T01:42:01.326Z,11.32
2018-02-04T01:44:30.046Z,12.13
2018-02-04T01:46:58.775Z,10.43
2018-02-04T01:49:27.470Z,9.85
2018-02-04T01:51:56.191Z,11.35
2018-02-04T01:54:25.658Z,11.70
2018-02-04T01:56:54.374Z,10.75
2018-02-04T01:59:23.846Z,11.32
2018-02-04T02:01:52.614Z,12.23
2018-02-04T02:04:21.330Z,11.07
2018-02-04T02:06:50.055Z,12.45
2018-02-04T02:09:19.202Z,11.30
2018-02-04T02:11:48.007Z,12.30
2018-02-04T02:14:16.771Z,12.27
2018-02-04T02:16:45.502Z,11.57
2018-02-04T02:19:14.194Z,12.18
2018-02-04T02:21:42.913Z,11.73
2018-02-04T02:24:11.614Z,11.88
2018-02-04T02:26:40.138Z,13.02
2018-02-04T02:29:08.845Z,13.45
2018-02-04T02:31:37.577Z,13.90
2018-02-04T02:34:06.643Z,13.70
2018-02-04T02:36:36.119Z,14.80
2018-02-04T02:39:04.238Z,13.77
2018-02-04T02:41:32.938Z,13.40
2018-02-04T02:44:01.670Z,14.65
2018-02-04T02:46:31.150Z,14.43
2018-02-04T02:48:59.595Z,14.25
2018-02-04T02:51:28.417Z,13.75
2018-02-04T02:53:57.147Z,14.23
2018-02-04T02:56:25.878Z,15.43
2018-02-04T02:58:54.593Z,15.35
2018-02-04T03:01:23.318Z,15.70
2018-02-04T03:03:52.790Z,16.60
2018-02-04T03:06:21.501Z,15.23
2018-02-04T03:08:51.730Z,15.40
2018-02-04T03:11:21.226Z,15.68
2018-02-04T03:13:49.930Z,16.10
2018-02-04T03:16:19.505Z,13.50
2018-02-04T03:18:48.210Z,12.70
2018-02-04T03:21:16.973Z,15.00
2018-02-04T03:23:46.087Z,13.55
2018-02-04T03:26:14.818Z,13.32
2018-02-04T03:28:44.526Z,13.55
2018-02-04T03:31:14.010Z,14.95
2018-02-04T03:33:42.715Z,15.63
2018-02-04T03:36:12.192Z,14.07
2018-02-04T03:38:40.926Z,14.90
2018-02-04T03:41:10.626Z,14.70
2018-02-04T03:43:38.906Z,13.25
2018-02-04T03:46:07.626Z,14.30
2018-02-04T03:48:36.386Z,14.65
2018-02-04T03:51:05.501Z,14.40
2018-02-04T03:53:34.263Z,14.55
2018-02-04T03:56:03.759Z,12.57
2018-02-04T03:58:33.246Z,12.52
2018-02-04T04:01:01.950Z,13.52
2018-02-04T04:03:30.478Z,14.82
2018-02-04T04:05:59.206Z,14.57
2018-02-04T04:08:28.010Z,13.30
2018-02-04T04:10:56.730Z,15.57
2018-02-04T04:13:25.433Z,15.13
2018-02-04T04:15:54.170Z,14.75
2018-02-04T04:18:22.874Z,14.80
2018-02-04T04:20:52.418Z,12.90
2018-02-04T04:23:21.122Z,14.87
2018-02-04T04:25:49.846Z,14.30
2018-02-04T04:28:18.603Z,15.20
2018-02-04T04:30:47.322Z,14.93
2018-02-04T04:33:16.798Z,17.02
2018-02-04T04:35:45.524Z,15.63
2018-02-04T04:38:15.004Z,15.73
2018-02-04T04:40:43.735Z,16.08
2018-02-04T04:43:12.447Z,15.43
2018-02-04T04:45:41.164Z,16.75
2018-02-04T04:48:09.870Z,15.98
2018-02-04T04:50:38.654Z,14.90
2018-02-04T04:53:07.374Z,15.23
2018-02-04T04:55:36.091Z,14.63
2018-02-04T04:58:04.829Z,13.85
2018-02-04T05:00:34.305Z,15.68
2018-02-04T05:03:03.031Z,14.30
2018-02-04T05:05:32.565Z,15.45
2018-02-04T05:08:01.286Z,16.02
2018-02-04T05:10:30.012Z,14.68
2018-02-04T05:12:59.506Z,14.80
2018-02-04T05:15:28.425Z,16.55
2018-02-04T05:17:57.134Z,15.55
2018-02-04T05:20:25.854Z,13.98
2018-02-04T05:22:54.569Z,13.80
2018-02-04T05:25:24.062Z,15.00
2018-02-04T05:27:52.778Z,14.10
2018-02-04T05:30:22.282Z,14.63
2018-02-04T05:32:51.774Z,16.23
2018-02-04T05:35:20.511Z,15.20
2018-02-04T05:37:49.265Z,14.73
2018-02-04T05:40:18.773Z,15.70
2018-02-04T05:42:48.334Z,14.63
2018-02-04T05:45:17.074Z,14.68
2018-02-04T05:47:46.277Z,14.32
2018-02-04T05:50:14.983Z,16.50
2018-02-04T05:52:43.042Z,14.60
2018-02-04T05:55:11.810Z,13.10
2018-02-04T05:57:41.307Z,13.98
2018-02-04T06:00:09.834Z,14.02
2018-02-04T06:02:38.809Z,14.38
2018-02-04T06:05:07.522Z,15.15
2018-02-04T06:07:36.254Z,14.93
2018-02-04T06:10:04.965Z,12.82
2018-02-04T06:12:34.435Z,13.65
2018-02-04T06:15:03.167Z,15.68
2018-02-04T06:17:31.899Z,14.65
2018-02-04T06:20:00.444Z,14.85
2018-02-04T06:22:29.016Z,14.63
2018-02-04T06:24:58.319Z,15.70
2018-02-04T06:27:27.602Z,15.73
2018-02-04T06:29:56.330Z,15.90
2018-02-04T06:32:25.045Z,14.15
2018-02-04T06:34:53.584Z,15.90
2018-02-04T06:37:23.070Z,16.02
2018-02-04T06:39:51.798Z,13.10
2018-02-04T06:42:20.542Z,15.32
2018-02-04T06:44:49.258Z,15.15
2018-02-04T06:47:18.810Z,15.20
2018-02-04T06:49:47.533Z,15.23
2018-02-04T06:52:16.246Z,16.80
2018-02-04T06:54:44.970Z,15.75
2018-02-04T06:57:13.729Z,14.95
2018-02-04T06:59:42.529Z,13.27
2018-02-04T07:02:11.298Z,14.70
2018-02-04T07:04:40.734Z,13.68
2018-02-04T07:07:09.446Z,14.55
2018-02-04T07:09:38.171Z,13.82
2018-02-04T07:12:07.662Z,14.02
2018-02-04T07:14:37.873Z,13.07
2018-02-04T07:17:06.605Z,13.82
2018-02-04T07:19:35.326Z,13.07
2018-02-04T07:22:04.054Z,12.98
2018-02-04T07:24:32.970Z,14.93
2018-02-04T07:27:01.889Z,14.15
2018-02-04T07:29:29.976Z,13.57
2018-02-04T07:31:58.826Z,12.77
2018-02-04T07:34:27.572Z,14.30
2018-02-04T07:36:56.865Z,15.25
2018-02-04T07:39:24.969Z,15.20
2018-02-04T07:41:53.774Z,13.50
2018-02-04T07:44:23.274Z,14.32
2018-02-04T07:46:52.796Z,12.90
2018-02-04T07:49:21.666Z,14.55
2018-02-04T07:51:50.597Z,14.70
2018-02-04T07:54:19.709Z,13.02
2018-02-04T07:56:48.831Z,14.20
2018-02-04T07:59:17.604Z,13.20
2018-02-04T08:01:46.713Z,13.48
2018-02-04T08:04:15.422Z,12.90
2018-02-04T08:06:44.150Z,13.10
2018-02-04T08:09:12.872Z,13.73
2018-02-04T08:11:42.056Z,12.63
2018-02-04T08:14:10.825Z,13.32
2018-02-04T08:16:39.718Z,14.13
2018-02-04T08:19:08.855Z,14.05
2018-02-04T08:21:37.577Z,14.07
2018-02-04T08:24:06.702Z,13.98
2018-02-04T08:26:36.556Z,12.65
2018-02-04T08:29:05.714Z,12.50
2018-02-04T08:31:34.822Z,11.52
2018-02-04T08:34:03.590Z,13.52
2018-02-04T08:36:32.703Z,12.02
2018-02-04T08:39:01.858Z,10.73
2018-02-04T08:41:30.569Z,10.02
2018-02-04T08:43:59.769Z,11.20
2018-02-04T08:46:28.633Z,11.23
2018-02-04T08:48:57.498Z,11.63
2018-02-04T08:51:26.602Z,12.02
2018-02-04T08:53:55.886Z,10.97
2018-02-04T08:56:24.734Z,11.60
2018-02-04T08:58:54.246Z,10.65
2018-02-04T09:01:23.734Z,11.43
2018-02-04T09:03:52.458Z,10.82
2018-02-04T09:06:21.279Z,10.82
2018-02-04T09:08:49.722Z,10.07
2018-02-04T09:11:18.682Z,10.40
2018-02-04T09:13:47.951Z,9.17
2018-02-04T09:16:17.582Z,8.25
2018-02-04T09:18:46.037Z,7.50
2018-02-04T09:21:14.475Z,8.93
2018-02-04T09:23:43.713Z,8.83
2018-02-04T09:26:12.540Z,8.60
2018-02-04T09:28:41.802Z,7.60
2018-02-04T09:31:10.648Z,8.70
2018-02-04T09:33:39.131Z,8.93
2018-02-04T09:36:07.585Z,9.50
2018-02-04T09:38:36.774Z,8.57
2018-02-04T09:41:05.977Z,8.70
2018-02-04T09:43:34.819Z,8.80
2018-02-04T09:46:03.654Z,8.27
2018-02-04T09:48:32.859Z,7.20
2018-02-04T09:51:02.061Z,7.73
2018-02-04T09:53:31.394Z,6.50
2018-02-04T09:55:59.814Z,7.17
2018-02-04T09:58:28.671Z,7.10
2018-02-04T10:00:57.518Z,8.70
2018-02-04T10:03:25.951Z,6.90
2018-02-04T10:05:54.800Z,7.53
2018-02-04T10:08:23.990Z,7.50
2018-02-04T10:10:52.438Z,5.80
2018-02-04T10:13:20.873Z,6.37
2018-02-04T10:15:50.331Z,5.53
2018-02-04T10:18:18.779Z,6.57
2018-02-04T10:20:47.618Z,6.53
2018-02-04T10:23:17.553Z,6.43
2018-02-04T10:25:46.497Z,5.90
2018-02-04T10:28:15.784Z,6.10
2018-02-04T10:30:45.137Z,5.77
2018-02-04T10:33:13.542Z,6.03
2018-02-04T10:35:42.801Z,6.60
2018-02-04T10:38:11.730Z,4.80
2018-02-04T10:40:40.637Z,6.03
2018-02-04T10:43:09.463Z,5.80
2018-02-04T10:45:37.892Z,6.50
2018-02-04T10:48:06.731Z,6.80
2018-02-04T10:50:35.365Z,6.43
2018-02-04T10:53:04.610Z,7.53
2018-02-04T10:55:33.436Z,5.67
2018-02-04T10:58:02.005Z,7.13
2018-02-04T11:00:32.405Z,5.70
2018-02-04T11:03:01.656Z,5.20
2018-02-04T11:05:30.486Z,5.00
2018-02-04T11:07:58.944Z,5.80
2018-02-04T11:10:27.771Z,5.70
2018-02-04T11:12:56.725Z,5.27
2018-02-04T11:15:25.703Z,5.00
2018-02-04T11:17:54.547Z,3.60
2018-02-04T11:20:23.024Z,3.33
2018-02-04T11:22:51.437Z,3.13
2018-02-04T11:25:19.903Z,3.43
2018-02-04T11:27:48.848Z,2.40
2018-02-04T11:30:17.023Z,2.97
2018-02-04T11:32:45.852Z,2.70
2018-02-04T11:35:14.700Z,2.10
2018-02-04T11:37:43.561Z,2.00
2018-02-04T11:40:12.767Z,2.17
2018-02-04T11:42:41.640Z,2.60
2018-02-04T11:45:10.106Z,2.30
2018-02-04T11:47:38.749Z,2.70
2018-02-04T11:50:07.583Z,2.80
2018-02-04T11:52:36.231Z,2.80
2018-02-04T11:55:05.236Z,3.30
2018-02-04T11:57:34.486Z,3.20
2018-02-04T12:00:03.705Z,3.73
2018-02-04T12:02:32.551Z,3.43
2018-02-04T12:05:01.782Z,3.40
2018-02-04T12:07:30.630Z,3.33
2018-02-04T12:09:59.449Z,2.80
2018-02-04T12:12:27.923Z,3.27
2018-02-04T12:14:56.752Z,3.50
2018-02-04T12:17:25.599Z,3.50
2018-02-04T12:19:54.450Z,3.00
2018-02-04T12:22:23.134Z,3.20
2018-02-04T12:24:51.566Z,2.97
2018-02-04T12:27:20.445Z,3.20
2018-02-04T12:29:49.661Z,3.70
2018-02-04T12:32:19.246Z,3.70
2018-02-04T12:34:47.665Z,3.53
2018-02-04T12:37:16.522Z,3.73
2018-02-04T12:39:44.958Z,3.77
2018-02-04T12:42:13.402Z,4.33
2018-02-04T12:44:41.900Z,3.40
2018-02-04T12:47:10.816Z,4.10
2018-02-04T12:49:39.646Z,4.17
2018-02-04T12:52:08.273Z,4.70
2018-02-04T12:54:36.738Z,3.73
2018-02-04T12:57:05.658Z,4.90
2018-02-04T12:59:34.278Z,4.73
2018-02-04T13:02:03.476Z,4.50
2018-02-04T13:04:32.698Z,5.00
2018-02-04T13:07:01.604Z,4.90
2018-02-04T13:09:30.433Z,5.00
2018-02-04T13:12:00.527Z,5.63
2018-02-04T13:14:29.067Z,6.30
2018-02-04T13:16:58.434Z,5.83
2018-02-04T13:19:26.883Z,6.17
2018-02-04T13:21:56.071Z,6.03
2018-02-04T13:24:24.342Z,6.37
2018-02-04T13:26:52.780Z,9.00
2018-02-04T13:29:21.478Z,7.62
2018-02-04T13:31:50.738Z,7.83
2018-02-04T13:34:19.856Z,8.27
2018-02-04T13:36:48.947Z,9.73
2018-02-04T13:39:17.813Z,8.83
2018-02-04T13:41:47.002Z,7.80
2018-02-04T13:44:15.727Z,6.00
2018-02-04T13:46:44.955Z,4.30
2018-02-04T13:49:13.777Z,5.03
2018-02-04T13:51:43.327Z,5.07
2018-02-04T13:54:12.034Z,4.40
2018-02-04T13:56:40.742Z,2.75
2018-02-04T13:59:09.450Z,2.80
2018-02-04T14:01:38.575Z,2.60
2018-02-04T14:04:08.318Z,3.33
2018-02-04T14:06:37.435Z,4.10
2018-02-04T14:09:06.526Z,3.65
2018-02-04T14:11:35.227Z,3.40
2018-02-04T14:14:04.346Z,3.60
2018-02-04T14:16:33.585Z,4.05
2018-02-04T14:19:01.981Z,4.97
2018-02-04T14:21:30.733Z,4.60
2018-02-04T14:24:00.227Z,4.10
2018-02-04T14:26:29.457Z,5.30
2018-02-04T14:28:58.562Z,5.53
2018-02-04T14:31:27.266Z,5.28
2018-02-04T14:33:55.795Z,5.80
2018-02-04T14:36:24.754Z,5.22
2018-02-04T14:38:53.454Z,5.30
2018-02-04T14:41:22.160Z,5.00
2018-02-04T14:43:50.864Z,5.00
2018-02-04T14:46:20.562Z,5.75
2018-02-04T14:48:50.056Z,5.45
2018-02-04T14:51:18.747Z,5.75
2018-02-04T14:53:47.433Z,4.72
2018-02-04T14:56:16.915Z,5.30
2018-02-04T14:58:45.306Z,5.40
2018-02-04T15:01:14.798Z,6.53
2018-02-04T15:03:43.694Z,6.35
2018-02-04T15:06:12.785Z,6.65
2018-02-04T15:08:41.494Z,6.65
2018-02-04T15:11:10.606Z,6.37
2018-02-04T15:13:39.327Z,5.97
2018-02-04T15:16:08.415Z,6.30
2018-02-04T15:18:37.580Z,6.18
2018-02-04T15:21:06.443Z,6.90
2018-02-04T15:23:35.190Z,6.60
2018-02-04T15:26:04.334Z,6.47
2018-02-04T15:28:33.422Z,6.90
2018-02-04T15:31:02.134Z,6.75
2018-02-04T15:33:31.603Z,6.87
2018-02-04T15:36:00.306Z,8.07
2018-02-04T15:38:29.016Z,6.55
2018-02-04T15:40:58.104Z,7.62
2018-02-04T15:43:26.828Z,6.87
2018-02-04T15:45:55.931Z,7.47
2018-02-04T15:48:25.034Z,8.23
2018-02-04T15:50:53.456Z,8.60
2018-02-04T15:53:22.210Z,7.75
2018-02-04T15:55:50.948Z,6.68
2018-02-04T15:58:19.733Z,7.00
2018-02-04T16:00:48.472Z,7.28
2018-02-04T16:03:17.327Z,10.18
2018-02-04T16:05:46.059Z,7.32
2018-02-04T16:08:14.782Z,5.90
2018-02-04T16:10:43.522Z,7.53
2018-02-04T16:13:12.988Z,7.60
2018-02-04T16:15:41.690Z,6.85
2018-02-04T16:18:11.199Z,7.32
2018-02-04T16:20:40.089Z,7.00
2018-02-04T16:23:08.804Z,7.03
2018-02-04T16:25:38.261Z,7.53
2018-02-04T16:28:07.019Z,8.02
2018-02-04T16:30:35.702Z,7.45
2018-02-04T16:33:04.502Z,7.32
2018-02-04T16:35:33.209Z,6.82
2018-02-04T16:38:01.964Z,6.90
2018-02-04T16:40:30.706Z,7.00
2018-02-04T16:42:59.580Z,7.40
2018-02-04T16:45:28.451Z,7.60
2018-02-04T16:47:58.094Z,8.95
2018-02-04T16:50:26.814Z,8.05
2018-02-04T16:52:56.066Z,8.45
2018-02-04T16:55:24.447Z,8.73
2018-02-04T16:57:53.154Z,9.23
2018-02-04T17:00:21.874Z,8.00
2018-02-04T17:02:51.358Z,7.62
2018-02-04T17:05:20.866Z,8.40
2018-02-04T17:07:48.914Z,8.07
2018-02-04T17:10:17.632Z,9.02
2018-02-04T17:12:47.163Z,8.98
2018-02-04T17:15:16.247Z,8.60
2018-02-04T17:17:45.763Z,9.57
2018-02-04T17:20:14.969Z,8.98
2018-02-04T17:22:43.753Z,10.77
2018-02-04T17:25:12.473Z,10.63
2018-02-04T17:27:41.229Z,9.90
2018-02-04T17:30:10.765Z,9.93
2018-02-04T17:32:39.530Z,9.93
2018-02-04T17:35:08.224Z,8.65
2018-02-04T17:37:37.041Z,9.68
2018-02-04T17:40:05.582Z,10.13
2018-02-04T17:42:35.101Z,10.25
2018-02-04T17:45:03.504Z,10.32
2018-02-04T17:47:32.043Z,11.00
2018-02-04T17:50:01.410Z,10.63
2018-02-04T17:52:29.949Z,9.15
2018-02-04T17:54:58.734Z,8.85
2018-02-04T17:57:27.626Z,10.48
2018-02-04T17:59:56.397Z,11.25
2018-02-04T18:02:25.182Z,10.65
2018-02-04T18:04:54.707Z,10.95
2018-02-04T18:07:22.762Z,10.20
2018-02-04T18:09:52.294Z,10.50
2018-02-04T18:12:21.015Z,11.15
2018-02-04T18:14:49.750Z,12.65
2018-02-04T18:17:18.522Z,11.70
2018-02-04T18:19:47.265Z,10.70
2018-02-04T18:22:15.990Z,12.55
2018-02-04T18:24:44.714Z,12.05
2018-02-04T18:27:13.422Z,11.65
2018-02-04T18:29:42.169Z,14.02
2018-02-04T18:32:10.883Z,11.25
2018-02-04T18:34:39.618Z,12.30
2018-02-04T18:37:08.520Z,12.32
2018-02-04T18:39:37.267Z,12.13
2018-02-04T18:42:05.994Z,13.00
2018-02-04T18:44:36.258Z,12.50
2018-02-04T18:47:05.810Z,12.68
2018-02-04T18:49:34.530Z,13.10
2018-02-04T18:52:03.272Z,10.05
2018-02-04T18:54:32.001Z,11.70
2018-02-04T18:57:01.658Z,10.60
2018-02-04T18:59:30.503Z,12.02
2018-02-04T19:01:59.317Z,13.60
2018-02-04T19:04:28.822Z,13.95
2018-02-04T19:06:58.327Z,13.73
2018-02-04T19:09:28.087Z,14.45
2018-02-04T19:11:57.137Z,12.20
2018-02-04T19:14:26.273Z,14.23
2018-02-04T19:16:55.019Z,13.95
2018-02-04T19:19:24.541Z,13.90
2018-02-04T19:21:53.388Z,14.18
2018-02-04T19:24:22.118Z,14.98
2018-02-04T19:26:51.618Z,14.80
2018-02-04T19:29:21.190Z,16.73
2018-02-04T19:31:49.933Z,16.70
2018-02-04T19:34:18.658Z,15.90
2018-02-04T19:36:47.050Z,16.52
2018-02-04T19:39:15.770Z,15.82
2018-02-04T19:41:45.278Z,15.43
2018-02-04T19:44:14.778Z,14.98
2018-02-04T19:46:44.279Z,14.25
2018-02-04T19:49:13.026Z,16.23
2018-02-04T19:51:41.769Z,15.50
2018-02-04T19:54:11.253Z,18.15
2018-02-04T19:56:41.491Z,16.08
2018-02-04T19:59:10.943Z,18.23
2018-02-04T20:01:39.697Z,16.83
2018-02-04T20:04:08.874Z,15.73
2018-02-04T20:06:38.506Z,16.05
2018-02-04T20:09:07.223Z,16.52
2018-02-04T20:11:35.962Z,15.40
2018-02-04T20:14:05.101Z,15.43
2018-02-04T20:16:33.856Z,16.05
2018-02-04T20:19:03.374Z,15.45
2018-02-04T20:21:32.876Z,16.12
2018-02-04T20:24:02.402Z,15.40
2018-02-04T20:26:31.218Z,16.20
2018-02-04T20:28:59.995Z,15.90
2018-02-04T20:31:28.540Z,14.65
2018-02-04T20:34:09.358Z,16.45
2018-02-04T20:36:37.415Z,15.20
2018-02-04T20:39:05.858Z,18.45
2018-02-04T20:41:34.586Z,18.40
2018-02-04T20:44:03.394Z,18.52
2018-02-04T20:46:32.102Z,17.50
2018-02-04T20:49:00.858Z,18.15
2018-02-04T20:51:29.588Z,19.85
2018-02-04T20:53:58.522Z,19.05
2018-02-04T20:56:27.238Z,20.83
2018-02-04T20:58:56.203Z,19.10
2018-02-04T21:01:24.933Z,20.48
2018-02-04T21:03:53.066Z,18.55
2018-02-04T21:06:21.817Z,22.48
2018-02-04T21:08:50.684Z,20.48
2018-02-04T21:11:19.421Z,20.95
2018-02-04T21:13:48.894Z,19.33
2018-02-04T21:16:17.637Z,21.62
2018-02-04T21:18:48.099Z,23.33
2018-02-04T21:21:16.834Z,20.12
2018-02-04T21:23:46.369Z,21.48
2018-02-04T21:26:15.505Z,22.05
2018-02-04T21:28:44.233Z,21.02
2018-02-04T21:31:13.734Z,19.30
2018-02-04T21:33:42.926Z,22.80
2018-02-04T21:36:12.402Z,21.33
2018-02-04T21:38:41.149Z,21.83
2018-02-04T21:41:09.893Z,19.62
2018-02-04T21:43:38.635Z,20.30
2018-02-04T21:46:07.372Z,17.52
2018-02-04T21:48:36.512Z,19.15
2018-02-04T21:51:05.245Z,20.60
2018-02-04T21:53:34.046Z,20.60
2018-02-04T21:56:02.773Z,21.25
2018-02-04T21:58:31.512Z,21.20
2018-02-04T22:01:00.236Z,17.98
2018-02-04T22:03:29.710Z,19.23
2018-02-04T22:05:58.456Z,19.12
2018-02-04T22:08:27.262Z,19.05
2018-02-04T22:10:56.126Z,17.20
2018-02-04T22:13:24.840Z,18.27
2018-02-04T22:15:53.566Z,17.10
2018-02-04T22:18:22.287Z,17.83
2018-02-04T22:20:51.007Z,19.45
2018-02-04T22:23:19.733Z,20.25
2018-02-04T22:25:48.558Z,18.62
2018-02-04T22:28:17.266Z,19.80
2018-02-04T22:30:46.003Z,20.37
2018-02-04T22:33:14.906Z,19.37
2018-02-04T22:35:44.172Z,20.30
2018-02-04T22:38:12.937Z,19.23
2018-02-04T22:40:41.678Z,20.92
2018-02-04T22:43:11.167Z,22.00
2018-02-04T22:45:39.565Z,20.52
2018-02-04T22:48:09.065Z,21.10
2018-02-04T22:50:37.803Z,23.05
2018-02-04T22:53:06.338Z,23.08
2018-02-04T22:55:35.052Z,20.65
2018-02-04T22:58:04.374Z,20.37
2018-02-04T23:00:33.130Z,19.27
2018-02-04T23:03:02.624Z,20.88
2018-02-04T23:05:31.345Z,18.08
2018-02-04T23:07:59.870Z,18.45
2018-02-04T23:10:28.819Z,17.73
2018-02-04T23:12:57.549Z,18.45
2018-02-04T23:15:26.294Z,17.95
2018-02-04T23:17:55.002Z,20.50
2018-02-04T23:20:23.555Z,18.95
2018-02-04T23:22:52.438Z,19.58
2018-02-04T23:25:21.987Z,19.77
2018-02-04T23:27:50.654Z,19.95
2018-02-04T23:30:19.377Z,20.02
2018-02-04T23:32:48.110Z,20.15
2018-02-04T23:35:17.599Z,21.95
2018-02-04T23:37:46.324Z,23.30
2018-02-04T23:40:15.168Z,22.42
2018-02-04T23:42:43.910Z,23.58
2018-02-04T23:45:12.630Z,23.83
2018-02-04T23:47:41.424Z,23.08
2018-02-04T23:50:10.140Z,22.92
2018-02-04T23:52:38.952Z,21.05
2018-02-04T23:55:08.548Z,22.13
2018-02-04T23:57:37.262Z,19.45
